sensor_id;sensor_type;location;lat;lon;timestamp;P1;durP1;ratioP1;P2;durP2;ratioP2
6215;SDS011;3141;49.234;9.326;2022-09-01T00:00:10;1.90;;;1.80;;
6215;SDS011;3141;49.234;9.326;2022-09-01T00:00:55;2.67;;;2.20;;
6215;SDS011;3141;49.234;9.326;2022-09-01T00:01:40;1.57;;;1.47;;
6215;SDS011;3141;49.234;9.326;2022-09-01T00:02:24;2.40;;;1.67;;
6215;SDS011;3141;49.234;9.326;2022-09-01T00:03:09;1.75;;;1.65;;
6215;SDS011;3141;49.234;9.326;2022-09-01T00:03:55;1.70;;;1.60;;
6215;SDS011;3141;49.234;9.326;2022-09-01T00:04:41;2.25;;;1.50;;
6215;SDS011;3141;49.234;9.326;2022-09-01T00:05:25;1.80;;;1.70;;
6215;SDS011;3141;49.234;9.326;2022-09-01T00:06:07;3.93;;;2.57;;
6215;SDS011;3141;49.234;9.326;2022-09-01T00:06:51;1.92;;;1.80;;
6215;SDS011;3141;49.234;9.326;2022-09-01T00:07:35;2.35;;;2.15;;
6215;SDS011;3141;49.234;9.326;2022-09-01T00:08:18;2.03;;;1.80;;
6215;SDS011;3141;49.234;9.326;2022-09-01T00:09:02;2.80;;;1.73;;
6215;SDS011;3141;49.234;9.326;2022-09-01T00:09:46;2.50;;;2.30;;
6215;SDS011;3141;49.234;9.326;2022-09-01T00:10:28;2.20;;;1.97;;
6215;SDS011;3141;49.234;9.326;2022-09-01T00:11:11;6.90;;;2.23;;
6215;SDS011;3141;49.234;9.326;2022-09-01T00:11:53;1.60;;;1.50;;
6215;SDS011;3141;49.234;9.326;2022-09-01T00:12:36;2.00;;;1.73;;
6215;SDS011;3141;49.234;9.326;2022-09-01T00:13:19;2.03;;;1.93;;
6215;SDS011;3141;49.234;9.326;2022-09-01T00:14:02;2.10;;;1.90;;
6215;SDS011;3141;49.234;9.326;2022-09-01T00:14:47;2.22;;;1.83;;
6215;SDS011;3141;49.234;9.326;2022-09-01T00:15:30;1.97;;;1.87;;
6215;SDS011;3141;49.234;9.326;2022-09-01T00:16:12;1.57;;;1.47;;
6215;SDS011;3141;49.234;9.326;2022-09-01T00:16:57;5.38;;;1.92;;
6215;SDS011;3141;49.234;9.326;2022-09-01T00:17:40;2.33;;;1.92;;
6215;SDS011;3141;49.234;9.326;2022-09-01T00:18:23;2.50;;;1.90;;
6215;SDS011;3141;49.234;9.326;2022-09-01T00:19:06;2.23;;;2.07;;
6215;SDS011;3141;49.234;9.326;2022-09-01T00:19:48;2.17;;;1.77;;
6215;SDS011;3141;49.234;9.326;2022-09-01T00:20:31;2.13;;;1.47;;
6215;SDS011;3141;49.234;9.326;2022-09-01T00:21:14;1.70;;;1.60;;
6215;SDS011;3141;49.234;9.326;2022-09-01T00:21:58;4.95;;;2.03;;
6215;SDS011;3141;49.234;9.326;2022-09-01T00:22:41;3.53;;;1.92;;
6215;SDS011;3141;49.234;9.326;2022-09-01T00:23:26;1.83;;;1.73;;
6215;SDS011;3141;49.234;9.326;2022-09-01T00:24:11;2.22;;;2.08;;
6215;SDS011;3141;49.234;9.326;2022-09-01T00:24:55;2.15;;;1.98;;
6215;SDS011;3141;49.234;9.326;2022-09-01T00:25:37;2.00;;;1.90;;
6215;SDS011;3141;49.234;9.326;2022-09-01T00:26:20;1.83;;;1.73;;
6215;SDS011;3141;49.234;9.326;2022-09-01T00:27:02;1.77;;;1.63;;
6215;SDS011;3141;49.234;9.326;2022-09-01T00:27:46;1.80;;;1.70;;
6215;SDS011;3141;49.234;9.326;2022-09-01T00:28:31;2.10;;;1.95;;
6215;SDS011;3141;49.234;9.326;2022-09-01T00:29:14;2.20;;;2.00;;
6215;SDS011;3141;49.234;9.326;2022-09-01T00:29:57;1.95;;;1.85;;
6215;SDS011;3141;49.234;9.326;2022-09-01T00:30:40;2.08;;;1.98;;
6215;SDS011;3141;49.234;9.326;2022-09-01T00:31:23;2.30;;;1.87;;
6215;SDS011;3141;49.234;9.326;2022-09-01T00:32:05;2.00;;;1.73;;
6215;SDS011;3141;49.234;9.326;2022-09-01T00:32:47;2.70;;;2.50;;
6215;SDS011;3141;49.234;9.326;2022-09-01T00:33:30;2.43;;;1.70;;
6215;SDS011;3141;49.234;9.326;2022-09-01T00:34:14;2.70;;;2.28;;
6215;SDS011;3141;49.234;9.326;2022-09-01T00:34:56;3.00;;;2.20;;
6215;SDS011;3141;49.234;9.326;2022-09-01T00:35:39;7.23;;;1.70;;
6215;SDS011;3141;49.234;9.326;2022-09-01T00:36:21;2.20;;;2.00;;
6215;SDS011;3141;49.234;9.326;2022-09-01T00:37:04;3.53;;;2.10;;
6215;SDS011;3141;49.234;9.326;2022-09-01T00:37:47;1.93;;;1.77;;
6215;SDS011;3141;49.234;9.326;2022-09-01T00:38:30;2.20;;;2.00;;
6215;SDS011;3141;49.234;9.326;2022-09-01T00:39:13;2.70;;;2.10;;
6215;SDS011;3141;49.234;9.326;2022-09-01T00:39:56;3.25;;;2.38;;
6215;SDS011;3141;49.234;9.326;2022-09-01T00:40:38;3.73;;;1.97;;
6215;SDS011;3141;49.234;9.326;2022-09-01T00:41:22;1.77;;;1.67;;
6215;SDS011;3141;49.234;9.326;2022-09-01T00:42:06;2.40;;;2.20;;
6215;SDS011;3141;49.234;9.326;2022-09-01T00:42:48;1.93;;;1.80;;
6215;SDS011;3141;49.234;9.326;2022-09-01T00:43:47;2.33;;;1.77;;
6215;SDS011;3141;49.234;9.326;2022-09-01T00:44:34;2.72;;;2.35;;
6215;SDS011;3141;49.234;9.326;2022-09-01T00:45:17;1.73;;;1.63;;
6215;SDS011;3141;49.234;9.326;2022-09-01T00:46:03;2.55;;;2.15;;
6215;SDS011;3141;49.234;9.326;2022-09-01T00:46:47;2.15;;;1.92;;
6215;SDS011;3141;49.234;9.326;2022-09-01T00:47:31;1.60;;;1.50;;
6215;SDS011;3141;49.234;9.326;2022-09-01T00:48:13;2.23;;;2.03;;
6215;SDS011;3141;49.234;9.326;2022-09-01T00:48:58;2.70;;;2.30;;
6215;SDS011;3141;49.234;9.326;2022-09-01T00:49:44;2.97;;;2.75;;
6215;SDS011;3141;49.234;9.326;2022-09-01T00:50:30;6.78;;;2.28;;
6215;SDS011;3141;49.234;9.326;2022-09-01T00:51:13;1.83;;;1.73;;
6215;SDS011;3141;49.234;9.326;2022-09-01T00:52:10;2.58;;;2.38;;
6215;SDS011;3141;49.234;9.326;2022-09-01T00:52:56;2.03;;;1.92;;
6215;SDS011;3141;49.234;9.326;2022-09-01T00:53:39;2.93;;;2.20;;
6215;SDS011;3141;49.234;9.326;2022-09-01T00:54:26;1.88;;;1.65;;
6215;SDS011;3141;49.234;9.326;2022-09-01T00:55:16;5.20;;;1.77;;
6215;SDS011;3141;49.234;9.326;2022-09-01T00:56:03;2.75;;;2.22;;
6215;SDS011;3141;49.234;9.326;2022-09-01T00:56:46;1.77;;;1.67;;
6215;SDS011;3141;49.234;9.326;2022-09-01T00:57:29;1.60;;;1.50;;
6215;SDS011;3141;49.234;9.326;2022-09-01T00:58:11;3.80;;;2.10;;
6215;SDS011;3141;49.234;9.326;2022-09-01T00:58:54;2.97;;;2.20;;
6215;SDS011;3141;49.234;9.326;2022-09-01T00:59:37;2.00;;;1.90;;
6215;SDS011;3141;49.234;9.326;2022-09-01T01:00:25;3.90;;;2.05;;
6215;SDS011;3141;49.234;9.326;2022-09-01T01:01:11;1.83;;;1.63;;
6215;SDS011;3141;49.234;9.326;2022-09-01T01:01:54;2.30;;;2.20;;
6215;SDS011;3141;49.234;9.326;2022-09-01T01:02:41;2.08;;;1.98;;
6215;SDS011;3141;49.234;9.326;2022-09-01T01:03:25;1.98;;;1.75;;
6215;SDS011;3141;49.234;9.326;2022-09-01T01:04:08;1.87;;;1.77;;
6215;SDS011;3141;49.234;9.326;2022-09-01T01:04:55;3.67;;;2.10;;
6215;SDS011;3141;49.234;9.326;2022-09-01T01:05:43;1.80;;;1.70;;
6215;SDS011;3141;49.234;9.326;2022-09-01T01:06:32;2.50;;;1.92;;
6215;SDS011;3141;49.234;9.326;2022-09-01T01:07:15;1.97;;;1.80;;
6215;SDS011;3141;49.234;9.326;2022-09-01T01:07:58;3.77;;;3.00;;
6215;SDS011;3141;49.234;9.326;2022-09-01T01:08:45;2.08;;;1.85;;
6215;SDS011;3141;49.234;9.326;2022-09-01T01:09:41;2.70;;;2.30;;
6215;SDS011;3141;49.234;9.326;2022-09-01T01:10:26;2.92;;;2.67;;
6215;SDS011;3141;49.234;9.326;2022-09-01T01:11:13;3.72;;;2.58;;
6215;SDS011;3141;49.234;9.326;2022-09-01T01:12:00;1.85;;;1.75;;
6215;SDS011;3141;49.234;9.326;2022-09-01T01:12:45;3.42;;;2.90;;
6215;SDS011;3141;49.234;9.326;2022-09-01T01:13:28;2.30;;;2.10;;
6215;SDS011;3141;49.234;9.326;2022-09-01T01:14:14;3.10;;;2.65;;
6215;SDS011;3141;49.234;9.326;2022-09-01T01:14:58;2.90;;;2.30;;
6215;SDS011;3141;49.234;9.326;2022-09-01T01:15:40;2.07;;;1.97;;
6215;SDS011;3141;49.234;9.326;2022-09-01T01:16:25;2.40;;;2.28;;
6215;SDS011;3141;49.234;9.326;2022-09-01T01:17:10;3.03;;;2.72;;
6215;SDS011;3141;49.234;9.326;2022-09-01T01:17:53;3.17;;;2.17;;
6215;SDS011;3141;49.234;9.326;2022-09-01T01:18:35;2.13;;;1.93;;
6215;SDS011;3141;49.234;9.326;2022-09-01T01:19:27;3.03;;;2.30;;
6215;SDS011;3141;49.234;9.326;2022-09-01T01:20:55;2.60;;;2.40;;
6215;SDS011;3141;49.234;9.326;2022-09-01T01:22:01;2.53;;;2.33;;
6215;SDS011;3141;49.234;9.326;2022-09-01T01:24:43;2.47;;;2.27;;
6215;SDS011;3141;49.234;9.326;2022-09-01T01:25:27;4.70;;;2.63;;
6215;SDS011;3141;49.234;9.326;2022-09-01T01:26:27;2.28;;;2.05;;
6215;SDS011;3141;49.234;9.326;2022-09-01T01:27:09;2.37;;;2.20;;
6215;SDS011;3141;49.234;9.326;2022-09-01T01:27:55;3.87;;;2.27;;
6215;SDS011;3141;49.234;9.326;2022-09-01T01:28:53;3.10;;;2.67;;
6215;SDS011;3141;49.234;9.326;2022-09-01T01:29:36;7.43;;;2.88;;
6215;SDS011;3141;49.234;9.326;2022-09-01T01:30:20;3.67;;;2.58;;
6215;SDS011;3141;49.234;9.326;2022-09-01T01:31:11;2.83;;;2.63;;
6215;SDS011;3141;49.234;9.326;2022-09-01T01:31:55;2.88;;;2.42;;
6215;SDS011;3141;49.234;9.326;2022-09-01T01:32:38;2.43;;;2.23;;
6215;SDS011;3141;49.234;9.326;2022-09-01T01:33:26;2.92;;;2.63;;
6215;SDS011;3141;49.234;9.326;2022-09-01T01:34:15;3.55;;;2.72;;
6215;SDS011;3141;49.234;9.326;2022-09-01T01:34:58;2.88;;;2.20;;
6215;SDS011;3141;49.234;9.326;2022-09-01T01:35:44;2.80;;;2.60;;
6215;SDS011;3141;49.234;9.326;2022-09-01T01:36:29;3.08;;;2.40;;
6215;SDS011;3141;49.234;9.326;2022-09-01T01:37:16;3.03;;;2.78;;
6215;SDS011;3141;49.234;9.326;2022-09-01T01:38:00;3.03;;;2.40;;
6215;SDS011;3141;49.234;9.326;2022-09-01T01:38:44;2.55;;;2.33;;
6215;SDS011;3141;49.234;9.326;2022-09-01T01:39:28;3.97;;;2.85;;
6215;SDS011;3141;49.234;9.326;2022-09-01T01:40:11;2.37;;;2.20;;
6215;SDS011;3141;49.234;9.326;2022-09-01T01:40:56;3.63;;;2.75;;
6215;SDS011;3141;49.234;9.326;2022-09-01T01:41:39;2.47;;;1.90;;
6215;SDS011;3141;49.234;9.326;2022-09-01T01:42:25;4.88;;;2.70;;
6215;SDS011;3141;49.234;9.326;2022-09-01T01:43:09;2.92;;;2.63;;
6215;SDS011;3141;49.234;9.326;2022-09-01T01:43:53;3.05;;;2.78;;
6215;SDS011;3141;49.234;9.326;2022-09-01T01:44:35;2.47;;;2.13;;
6215;SDS011;3141;49.234;9.326;2022-09-01T01:45:20;2.22;;;2.03;;
6215;SDS011;3141;49.234;9.326;2022-09-01T01:46:05;2.38;;;2.17;;
6215;SDS011;3141;49.234;9.326;2022-09-01T01:46:49;2.88;;;2.15;;
6215;SDS011;3141;49.234;9.326;2022-09-01T01:47:34;2.42;;;2.22;;
6215;SDS011;3141;49.234;9.326;2022-09-01T01:48:17;2.13;;;1.97;;
6215;SDS011;3141;49.234;9.326;2022-09-01T01:49:03;4.82;;;2.75;;
6215;SDS011;3141;49.234;9.326;2022-09-01T01:49:46;3.03;;;2.73;;
6215;SDS011;3141;49.234;9.326;2022-09-01T01:50:29;2.53;;;2.17;;
6215;SDS011;3141;49.234;9.326;2022-09-01T01:51:16;2.80;;;1.95;;
6215;SDS011;3141;49.234;9.326;2022-09-01T01:52:01;3.45;;;2.75;;
6215;SDS011;3141;49.234;9.326;2022-09-01T01:52:45;3.60;;;2.70;;
6215;SDS011;3141;49.234;9.326;2022-09-01T01:53:28;2.60;;;2.40;;
6215;SDS011;3141;49.234;9.326;2022-09-01T01:54:10;2.63;;;2.43;;
6215;SDS011;3141;49.234;9.326;2022-09-01T01:54:53;2.83;;;2.08;;
6215;SDS011;3141;49.234;9.326;2022-09-01T01:55:36;3.03;;;2.73;;
6215;SDS011;3141;49.234;9.326;2022-09-01T01:56:18;2.63;;;2.07;;
6215;SDS011;3141;49.234;9.326;2022-09-01T01:57:03;5.55;;;2.40;;
6215;SDS011;3141;49.234;9.326;2022-09-01T01:57:46;3.77;;;2.73;;
6215;SDS011;3141;49.234;9.326;2022-09-01T01:58:31;4.07;;;2.75;;
6215;SDS011;3141;49.234;9.326;2022-09-01T01:59:14;2.47;;;2.28;;
6215;SDS011;3141;49.234;9.326;2022-09-01T01:59:57;2.53;;;2.22;;
6215;SDS011;3141;49.234;9.326;2022-09-01T02:00:40;4.03;;;2.83;;
6215;SDS011;3141;49.234;9.326;2022-09-01T02:01:27;2.38;;;2.28;;
6215;SDS011;3141;49.234;9.326;2022-09-01T02:02:10;5.45;;;3.03;;
6215;SDS011;3141;49.234;9.326;2022-09-01T02:02:54;2.80;;;2.60;;
6215;SDS011;3141;49.234;9.326;2022-09-01T02:03:36;2.80;;;2.60;;
6215;SDS011;3141;49.234;9.326;2022-09-01T02:04:20;2.50;;;2.30;;
6215;SDS011;3141;49.234;9.326;2022-09-01T02:05:02;3.07;;;2.83;;
6215;SDS011;3141;49.234;9.326;2022-09-01T02:05:46;2.22;;;2.13;;
6215;SDS011;3141;49.234;9.326;2022-09-01T02:06:32;2.30;;;2.10;;
6215;SDS011;3141;49.234;9.326;2022-09-01T02:07:15;3.58;;;2.85;;
6215;SDS011;3141;49.234;9.326;2022-09-01T02:08:04;4.78;;;2.75;;
6215;SDS011;3141;49.234;9.326;2022-09-01T02:08:48;4.18;;;2.47;;
6215;SDS011;3141;49.234;9.326;2022-09-01T02:09:31;2.80;;;2.60;;
6215;SDS011;3141;49.234;9.326;2022-09-01T02:10:14;2.50;;;2.30;;
6215;SDS011;3141;49.234;9.326;2022-09-01T02:10:57;6.67;;;2.80;;
6215;SDS011;3141;49.234;9.326;2022-09-01T02:11:41;4.20;;;2.67;;
6215;SDS011;3141;49.234;9.326;2022-09-01T02:12:23;2.47;;;2.27;;
6215;SDS011;3141;49.234;9.326;2022-09-01T02:13:06;3.70;;;2.77;;
6215;SDS011;3141;49.234;9.326;2022-09-01T02:13:49;2.83;;;2.55;;
6215;SDS011;3141;49.234;9.326;2022-09-01T02:14:37;3.00;;;2.40;;
6215;SDS011;3141;49.234;9.326;2022-09-01T02:15:19;3.73;;;2.50;;
6215;SDS011;3141;49.234;9.326;2022-09-01T02:16:03;3.80;;;2.87;;
6215;SDS011;3141;49.234;9.326;2022-09-01T02:16:54;2.80;;;2.35;;
6215;SDS011;3141;49.234;9.326;2022-09-01T02:17:36;3.37;;;2.80;;
6215;SDS011;3141;49.234;9.326;2022-09-01T02:18:39;4.20;;;1.90;;
6215;SDS011;3141;49.234;9.326;2022-09-01T02:19:23;3.13;;;2.72;;
6215;SDS011;3141;49.234;9.326;2022-09-01T02:20:06;2.83;;;2.50;;
6215;SDS011;3141;49.234;9.326;2022-09-01T02:20:49;3.37;;;2.43;;
6215;SDS011;3141;49.234;9.326;2022-09-01T02:21:33;3.20;;;3.00;;
6215;SDS011;3141;49.234;9.326;2022-09-01T02:22:15;3.43;;;2.63;;
6215;SDS011;3141;49.234;9.326;2022-09-01T02:23:01;4.30;;;3.03;;
6215;SDS011;3141;49.234;9.326;2022-09-01T02:23:54;4.43;;;2.92;;
6215;SDS011;3141;49.234;9.326;2022-09-01T02:24:44;4.28;;;2.75;;
6215;SDS011;3141;49.234;9.326;2022-09-01T02:25:30;2.90;;;2.53;;
6215;SDS011;3141;49.234;9.326;2022-09-01T02:26:13;2.53;;;2.33;;
6215;SDS011;3141;49.234;9.326;2022-09-01T02:26:57;3.45;;;2.50;;
6215;SDS011;3141;49.234;9.326;2022-09-01T02:27:41;3.90;;;2.45;;
6215;SDS011;3141;49.234;9.326;2022-09-01T02:28:24;3.60;;;2.08;;
6215;SDS011;3141;49.234;9.326;2022-09-01T02:29:09;3.10;;;2.65;;
6215;SDS011;3141;49.234;9.326;2022-09-01T02:29:58;2.67;;;2.47;;
6215;SDS011;3141;49.234;9.326;2022-09-01T02:30:42;4.47;;;2.93;;
6215;SDS011;3141;49.234;9.326;2022-09-01T02:31:31;3.38;;;2.22;;
6215;SDS011;3141;49.234;9.326;2022-09-01T02:32:16;4.97;;;3.30;;
6215;SDS011;3141;49.234;9.326;2022-09-01T02:33:00;2.75;;;2.55;;
6215;SDS011;3141;49.234;9.326;2022-09-01T02:33:42;3.33;;;2.63;;
6215;SDS011;3141;49.234;9.326;2022-09-01T02:34:26;3.67;;;2.78;;
6215;SDS011;3141;49.234;9.326;2022-09-01T02:35:09;4.75;;;3.13;;
6215;SDS011;3141;49.234;9.326;2022-09-01T02:35:56;4.70;;;1.73;;
6215;SDS011;3141;49.234;9.326;2022-09-01T02:36:41;3.17;;;2.88;;
6215;SDS011;3141;49.234;9.326;2022-09-01T02:37:28;4.03;;;2.30;;
6215;SDS011;3141;49.234;9.326;2022-09-01T02:38:11;3.27;;;2.67;;
6215;SDS011;3141;49.234;9.326;2022-09-01T02:38:55;2.92;;;2.63;;
6215;SDS011;3141;49.234;9.326;2022-09-01T02:39:37;4.37;;;2.63;;
6215;SDS011;3141;49.234;9.326;2022-09-01T02:40:19;3.27;;;2.97;;
6215;SDS011;3141;49.234;9.326;2022-09-01T02:41:02;3.20;;;2.57;;
6215;SDS011;3141;49.234;9.326;2022-09-01T02:41:44;4.27;;;3.40;;
6215;SDS011;3141;49.234;9.326;2022-09-01T02:42:27;3.75;;;2.60;;
6215;SDS011;3141;49.234;9.326;2022-09-01T02:43:10;3.17;;;2.87;;
6215;SDS011;3141;49.234;9.326;2022-09-01T02:43:54;3.50;;;2.88;;
6215;SDS011;3141;49.234;9.326;2022-09-01T02:44:36;2.27;;;2.07;;
6215;SDS011;3141;49.234;9.326;2022-09-01T02:45:20;3.03;;;2.65;;
6215;SDS011;3141;49.234;9.326;2022-09-01T02:46:03;2.77;;;2.37;;
6215;SDS011;3141;49.234;9.326;2022-09-01T02:46:47;4.85;;;3.13;;
6215;SDS011;3141;49.234;9.326;2022-09-01T02:47:31;2.42;;;2.22;;
6215;SDS011;3141;49.234;9.326;2022-09-01T02:48:13;3.23;;;3.00;;
6215;SDS011;3141;49.234;9.326;2022-09-01T02:48:55;3.20;;;2.97;;
6215;SDS011;3141;49.234;9.326;2022-09-01T02:49:41;3.38;;;3.08;;
6215;SDS011;3141;49.234;9.326;2022-09-01T02:50:24;3.13;;;2.90;;
6215;SDS011;3141;49.234;9.326;2022-09-01T02:51:09;2.70;;;2.50;;
6215;SDS011;3141;49.234;9.326;2022-09-01T02:51:53;2.85;;;2.60;;
6215;SDS011;3141;49.234;9.326;2022-09-01T02:52:39;5.05;;;2.33;;
6215;SDS011;3141;49.234;9.326;2022-09-01T02:53:21;5.20;;;3.00;;
6215;SDS011;3141;49.234;9.326;2022-09-01T02:54:04;3.00;;;2.70;;
6215;SDS011;3141;49.234;9.326;2022-09-01T02:54:47;4.13;;;2.60;;
6215;SDS011;3141;49.234;9.326;2022-09-01T02:55:30;3.58;;;3.03;;
6215;SDS011;3141;49.234;9.326;2022-09-01T02:56:13;2.87;;;2.67;;
6215;SDS011;3141;49.234;9.326;2022-09-01T02:56:56;3.35;;;2.75;;
6215;SDS011;3141;49.234;9.326;2022-09-01T02:57:39;3.07;;;2.50;;
6215;SDS011;3141;49.234;9.326;2022-09-01T02:58:21;3.00;;;2.73;;
6215;SDS011;3141;49.234;9.326;2022-09-01T02:59:05;3.53;;;3.22;;
6215;SDS011;3141;49.234;9.326;2022-09-01T02:59:52;6.10;;;3.58;;
6215;SDS011;3141;49.234;9.326;2022-09-01T03:00:36;2.47;;;2.28;;
6215;SDS011;3141;49.234;9.326;2022-09-01T03:01:21;5.78;;;3.00;;
6215;SDS011;3141;49.234;9.326;2022-09-01T03:02:10;3.40;;;3.10;;
6215;SDS011;3141;49.234;9.326;2022-09-01T03:02:52;3.30;;;2.77;;
6215;SDS011;3141;49.234;9.326;2022-09-01T03:03:37;3.35;;;2.88;;
6215;SDS011;3141;49.234;9.326;2022-09-01T03:04:20;3.80;;;3.13;;
6215;SDS011;3141;49.234;9.326;2022-09-01T03:05:03;2.70;;;2.50;;
6215;SDS011;3141;49.234;9.326;2022-09-01T03:05:47;3.30;;;2.97;;
6215;SDS011;3141;49.234;9.326;2022-09-01T03:06:36;3.67;;;3.30;;
6215;SDS011;3141;49.234;9.326;2022-09-01T03:07:19;3.47;;;2.72;;
6215;SDS011;3141;49.234;9.326;2022-09-01T03:08:03;3.95;;;3.30;;
6215;SDS011;3141;49.234;9.326;2022-09-01T03:08:49;4.32;;;2.63;;
6215;SDS011;3141;49.234;9.326;2022-09-01T03:09:33;3.38;;;3.08;;
6215;SDS011;3141;49.234;9.326;2022-09-01T03:10:16;3.60;;;3.28;;
6215;SDS011;3141;49.234;9.326;2022-09-01T03:11:02;3.35;;;3.00;;
6215;SDS011;3141;49.234;9.326;2022-09-01T03:11:46;6.03;;;3.73;;
6215;SDS011;3141;49.234;9.326;2022-09-01T03:12:30;5.05;;;3.53;;
6215;SDS011;3141;49.234;9.326;2022-09-01T03:13:14;5.30;;;3.23;;
6215;SDS011;3141;49.234;9.326;2022-09-01T03:13:58;2.85;;;2.63;;
6215;SDS011;3141;49.234;9.326;2022-09-01T03:14:41;3.73;;;3.07;;
6215;SDS011;3141;49.234;9.326;2022-09-01T03:15:23;2.83;;;2.57;;
6215;SDS011;3141;49.234;9.326;2022-09-01T03:16:06;3.27;;;2.97;;
6215;SDS011;3141;49.234;9.326;2022-09-01T03:16:49;3.00;;;2.70;;
6215;SDS011;3141;49.234;9.326;2022-09-01T03:17:32;3.30;;;3.00;;
6215;SDS011;3141;49.234;9.326;2022-09-01T03:18:16;3.00;;;2.75;;
6215;SDS011;3141;49.234;9.326;2022-09-01T03:19:01;7.00;;;3.17;;
6215;SDS011;3141;49.234;9.326;2022-09-01T03:19:44;3.00;;;2.75;;
6215;SDS011;3141;49.234;9.326;2022-09-01T03:20:28;5.53;;;2.67;;
6215;SDS011;3141;49.234;9.326;2022-09-01T03:21:15;3.40;;;3.00;;
6215;SDS011;3141;49.234;9.326;2022-09-01T03:21:58;10.45;;;3.25;;
6215;SDS011;3141;49.234;9.326;2022-09-01T03:22:41;3.83;;;3.07;;
6215;SDS011;3141;49.234;9.326;2022-09-01T03:23:25;4.88;;;3.08;;
6215;SDS011;3141;49.234;9.326;2022-09-01T03:24:09;3.45;;;3.15;;
6215;SDS011;3141;49.234;9.326;2022-09-01T03:24:56;3.92;;;3.60;;
6215;SDS011;3141;49.234;9.326;2022-09-01T03:25:38;3.67;;;3.20;;
6215;SDS011;3141;49.234;9.326;2022-09-01T03:26:21;3.63;;;3.10;;
6215;SDS011;3141;49.234;9.326;2022-09-01T03:27:04;3.42;;;3.03;;
6215;SDS011;3141;49.234;9.326;2022-09-01T03:27:46;3.27;;;2.87;;
6215;SDS011;3141;49.234;9.326;2022-09-01T03:28:29;4.50;;;3.07;;
6215;SDS011;3141;49.234;9.326;2022-09-01T03:29:11;4.60;;;3.27;;
6215;SDS011;3141;49.234;9.326;2022-09-01T03:29:54;3.47;;;3.07;;
6215;SDS011;3141;49.234;9.326;2022-09-01T03:30:36;4.07;;;3.60;;
6215;SDS011;3141;49.234;9.326;2022-09-01T03:31:22;3.53;;;3.20;;
6215;SDS011;3141;49.234;9.326;2022-09-01T03:32:08;3.85;;;3.42;;
6215;SDS011;3141;49.234;9.326;2022-09-01T03:32:50;5.67;;;3.03;;
6215;SDS011;3141;49.234;9.326;2022-09-01T03:33:33;4.97;;;3.63;;
6215;SDS011;3141;49.234;9.326;2022-09-01T03:34:15;2.80;;;2.50;;
6215;SDS011;3141;49.234;9.326;2022-09-01T03:34:59;4.47;;;3.42;;
6215;SDS011;3141;49.234;9.326;2022-09-01T03:35:42;3.93;;;2.90;;
6215;SDS011;3141;49.234;9.326;2022-09-01T03:36:26;2.90;;;2.45;;
6215;SDS011;3141;49.234;9.326;2022-09-01T03:37:09;3.95;;;3.53;;
6215;SDS011;3141;49.234;9.326;2022-09-01T03:37:53;4.18;;;3.78;;
6215;SDS011;3141;49.234;9.326;2022-09-01T03:38:40;3.33;;;3.00;;
6215;SDS011;3141;49.234;9.326;2022-09-01T03:39:24;5.47;;;3.50;;
6215;SDS011;3141;49.234;9.326;2022-09-01T03:40:07;3.53;;;3.10;;
6215;SDS011;3141;49.234;9.326;2022-09-01T03:40:51;4.43;;;3.57;;
6215;SDS011;3141;49.234;9.326;2022-09-01T03:41:35;3.53;;;3.10;;
6215;SDS011;3141;49.234;9.326;2022-09-01T03:42:18;4.30;;;3.30;;
6215;SDS011;3141;49.234;9.326;2022-09-01T03:43:07;3.80;;;3.13;;
6215;SDS011;3141;49.234;9.326;2022-09-01T03:43:54;4.25;;;3.30;;
6215;SDS011;3141;49.234;9.326;2022-09-01T03:44:39;6.68;;;3.75;;
6215;SDS011;3141;49.234;9.326;2022-09-01T03:45:24;3.08;;;2.80;;
6215;SDS011;3141;49.234;9.326;2022-09-01T03:46:06;3.93;;;3.53;;
6215;SDS011;3141;49.234;9.326;2022-09-01T03:46:50;4.32;;;3.65;;
6215;SDS011;3141;49.234;9.326;2022-09-01T03:47:42;5.15;;;3.60;;
6215;SDS011;3141;49.234;9.326;2022-09-01T03:48:25;6.25;;;3.30;;
6215;SDS011;3141;49.234;9.326;2022-09-01T03:49:10;4.07;;;3.33;;
6215;SDS011;3141;49.234;9.326;2022-09-01T03:49:56;6.90;;;3.58;;
6215;SDS011;3141;49.234;9.326;2022-09-01T03:50:40;3.60;;;3.27;;
6215;SDS011;3141;49.234;9.326;2022-09-01T03:51:27;3.72;;;3.25;;
6215;SDS011;3141;49.234;9.326;2022-09-01T03:52:12;3.85;;;3.25;;
6215;SDS011;3141;49.234;9.326;2022-09-01T03:52:55;5.70;;;3.63;;
6215;SDS011;3141;49.234;9.326;2022-09-01T03:53:39;5.32;;;3.58;;
6215;SDS011;3141;49.234;9.326;2022-09-01T03:54:22;6.07;;;3.90;;
6215;SDS011;3141;49.234;9.326;2022-09-01T03:55:08;4.72;;;3.63;;
6215;SDS011;3141;49.234;9.326;2022-09-01T03:55:51;4.27;;;3.67;;
6215;SDS011;3141;49.234;9.326;2022-09-01T03:56:34;5.07;;;3.47;;
6215;SDS011;3141;49.234;9.326;2022-09-01T03:57:16;3.37;;;3.03;;
6215;SDS011;3141;49.234;9.326;2022-09-01T03:58:00;5.13;;;3.17;;
6215;SDS011;3141;49.234;9.326;2022-09-01T03:58:47;4.18;;;3.00;;
6215;SDS011;3141;49.234;9.326;2022-09-01T03:59:29;4.53;;;3.80;;
6215;SDS011;3141;49.234;9.326;2022-09-01T04:00:12;5.47;;;4.00;;
6215;SDS011;3141;49.234;9.326;2022-09-01T04:01:01;4.20;;;3.65;;
6215;SDS011;3141;49.234;9.326;2022-09-01T04:01:45;4.95;;;3.90;;
6215;SDS011;3141;49.234;9.326;2022-09-01T04:02:28;4.17;;;3.40;;
6215;SDS011;3141;49.234;9.326;2022-09-01T04:03:11;7.57;;;4.17;;
6215;SDS011;3141;49.234;9.326;2022-09-01T04:03:54;5.15;;;3.65;;
6215;SDS011;3141;49.234;9.326;2022-09-01T04:04:36;4.17;;;3.77;;
6215;SDS011;3141;49.234;9.326;2022-09-01T04:05:19;4.20;;;3.80;;
6215;SDS011;3141;49.234;9.326;2022-09-01T04:06:07;4.93;;;3.58;;
6215;SDS011;3141;49.234;9.326;2022-09-01T04:06:51;7.53;;;4.10;;
6215;SDS011;3141;49.234;9.326;2022-09-01T04:07:33;7.13;;;3.80;;
6215;SDS011;3141;49.234;9.326;2022-09-01T04:08:15;6.70;;;4.73;;
6215;SDS011;3141;49.234;9.326;2022-09-01T04:08:59;3.58;;;3.28;;
6215;SDS011;3141;49.234;9.326;2022-09-01T04:09:43;4.63;;;3.80;;
6215;SDS011;3141;49.234;9.326;2022-09-01T04:10:26;4.70;;;3.27;;
6215;SDS011;3141;49.234;9.326;2022-09-01T04:11:12;5.03;;;4.10;;
6215;SDS011;3141;49.234;9.326;2022-09-01T04:11:59;5.50;;;3.85;;
6215;SDS011;3141;49.234;9.326;2022-09-01T04:12:41;5.13;;;3.63;;
6215;SDS011;3141;49.234;9.326;2022-09-01T04:13:25;4.33;;;3.43;;
6215;SDS011;3141;49.234;9.326;2022-09-01T04:14:11;4.53;;;4.10;;
6215;SDS011;3141;49.234;9.326;2022-09-01T04:14:54;8.07;;;3.10;;
6215;SDS011;3141;49.234;9.326;2022-09-01T04:15:36;3.43;;;3.10;;
6215;SDS011;3141;49.234;9.326;2022-09-01T04:16:21;5.50;;;3.10;;
6215;SDS011;3141;49.234;9.326;2022-09-01T04:17:26;3.92;;;3.50;;
6215;SDS011;3141;49.234;9.326;2022-09-01T04:18:27;3.97;;;3.58;;
6215;SDS011;3141;49.234;9.326;2022-09-01T04:19:12;3.72;;;3.40;;
6215;SDS011;3141;49.234;9.326;2022-09-01T04:20:01;5.68;;;3.78;;
6215;SDS011;3141;49.234;9.326;2022-09-01T04:20:56;6.35;;;4.38;;
6215;SDS011;3141;49.234;9.326;2022-09-01T04:21:41;7.00;;;4.10;;
6215;SDS011;3141;49.234;9.326;2022-09-01T04:22:24;3.83;;;3.35;;
6215;SDS011;3141;49.234;9.326;2022-09-01T04:23:14;3.30;;;3.05;;
6215;SDS011;3141;49.234;9.326;2022-09-01T04:24:10;2.95;;;2.72;;
6215;SDS011;3141;49.234;9.326;2022-09-01T04:24:55;4.20;;;3.53;;
6215;SDS011;3141;49.234;9.326;2022-09-01T04:25:38;3.80;;;3.40;;
6215;SDS011;3141;49.234;9.326;2022-09-01T04:26:21;4.70;;;3.97;;
6215;SDS011;3141;49.234;9.326;2022-09-01T04:27:04;4.28;;;3.88;;
6215;SDS011;3141;49.234;9.326;2022-09-01T04:27:50;6.30;;;3.65;;
6215;SDS011;3141;49.234;9.326;2022-09-01T04:28:38;3.90;;;3.50;;
6215;SDS011;3141;49.234;9.326;2022-09-01T04:29:23;4.40;;;3.00;;
6215;SDS011;3141;49.234;9.326;2022-09-01T04:30:08;6.18;;;4.63;;
6215;SDS011;3141;49.234;9.326;2022-09-01T04:30:53;4.20;;;3.80;;
6215;SDS011;3141;49.234;9.326;2022-09-01T04:31:38;4.07;;;3.55;;
6215;SDS011;3141;49.234;9.326;2022-09-01T04:32:21;3.40;;;3.13;;
6215;SDS011;3141;49.234;9.326;2022-09-01T04:33:05;4.80;;;3.67;;
6215;SDS011;3141;49.234;9.326;2022-09-01T04:33:49;4.30;;;2.75;;
6215;SDS011;3141;49.234;9.326;2022-09-01T04:34:36;3.95;;;3.63;;
6215;SDS011;3141;49.234;9.326;2022-09-01T04:35:21;5.15;;;4.18;;
6215;SDS011;3141;49.234;9.326;2022-09-01T04:37:10;4.18;;;3.78;;
6215;SDS011;3141;49.234;9.326;2022-09-01T04:37:55;4.57;;;4.07;;
6215;SDS011;3141;49.234;9.326;2022-09-01T04:38:38;4.40;;;4.00;;
6215;SDS011;3141;49.234;9.326;2022-09-01T04:39:21;4.33;;;3.60;;
6215;SDS011;3141;49.234;9.326;2022-09-01T04:40:05;6.28;;;4.18;;
6215;SDS011;3141;49.234;9.326;2022-09-01T04:40:47;4.57;;;3.87;;